This is the latest recevied weather packets stored in our database for station/object N4OGP-WX. If no packets are shown the sender has not sent any weather packets the latest 1 day(s).
| Time | Temp. | Humidity | Pressure | Rain* | Wind** | Luminosity | Snow |
|---|---|---|---|---|---|---|---|
| 1777963916 | 23.89° C | 42% | 1020.4 hPa | 0 mm | 0 m/s | - | - |
| 1777963856 | 15° C | 82% | 1011.1 hPa | 0 mm | 0 m/s | - | - |
| 1777963796 | 23.89° C | 42% | 1020.4 hPa | 0 mm | 0 m/s | - | - |
| 1777963736 | 23.89° C | 42% | 1020.4 hPa | 0 mm | 0 m/s | - | - |
| 1777963676 | 23.89° C | 42% | 1020.4 hPa | 0 mm | 0 m/s | - | - |
| 1777963616 | 15° C | 82% | 1011.2 hPa | 0 mm | 0 m/s | - | - |
| 1777963556 | 15° C | 82% | 1011.2 hPa | 0 mm | 0 m/s | - | - |
| 1777963496 | 15.56° C | 82% | 1011.2 hPa | 0 mm | 0 m/s | - | - |
| 1777963436 | 15.56° C | 82% | 1011.2 hPa | 0 mm | 0 m/s | - | - |
| 1777963346 | 15.56° C | 82% | 1011.3 hPa | 0 mm | 0 m/s | - | - |
| 1777963286 | 23.89° C | 42% | 1020.4 hPa | 0 mm | 0 m/s | - | - |
| 1777963226 | 23.89° C | 42% | 1020.4 hPa | 0 mm | 0 m/s | - | - |
| 1777963166 | 23.89° C | 42% | 1020.4 hPa | 0 mm | 0 m/s | - | - |
| 1777963106 | 23.89° C | 42% | 1020.4 hPa | 0 mm | 0 m/s | - | - |
| 1777963016 | 23.89° C | 42% | 1020.4 hPa | 0 mm | 0 m/s | - | - |
| 1777962956 | 15.56° C | 81% | 1011.4 hPa | 0 mm | 0 m/s | - | - |
| 1777962866 | 15.56° C | 81% | 1011.4 hPa | 0 mm | 0 m/s | - | - |
| 1777962806 | 23.89° C | 42% | 1020.4 hPa | 0 mm | 0 m/s | - | - |
| 1777962716 | 15.56° C | 81% | 1011.4 hPa | 0 mm | 0 m/s | - | - |
| 1777962656 | 23.89° C | 42% | 1020.4 hPa | 0 mm | 0 m/s | - | - |
| 1777962596 | 15.56° C | 81% | 1011.4 hPa | 0 mm | 0 m/s | - | - |
| 1777962536 | 15.56° C | 81% | 1011.4 hPa | 0 mm | 0 m/s | - | - |
| 1777962476 | 23.89° C | 42% | 1020.4 hPa | 0 mm | 0 m/s | - | - |
| 1777962416 | 23.89° C | 42% | 1020.4 hPa | 0 mm | 0 m/s | - | - |
| 1777962356 | 23.89° C | 42% | 1020.4 hPa | 0 mm | 0 m/s | - | - |
* Rain latest hour (hover to see other rain measurements)
** Current wind speed in m/s (hover to see current wind gust speed)